Terminal Aerodrome Forecast
Issued by NWS Shreveport, LA

Home | Current Version | Previous Version | Text Only | Print | Product List | Glossary On
Versions: 1 2 3 4 5 6 7 8 9 10 11 12 13 14 15 16
000
FTUS44 KSHV 281300 AAA
TAFMLU
TAF AMD
KMLU 281359Z 2814/2912 01006KT P6SM -RA OVC013
      TEMPO 2814/2816 1SM BR OVC004
     FM281600 02007KT 4SM -RA BR OVC007
     FM290300 03003KT 4SM BR OVC007
     FM290600 02003KT 4SM BR OVC004
     FM290900 03004KT 2SM BR OVC001=

USA.gov is the U.S. government's official web portal to all federal, state and local government web resources and services.